Time;durP1;ratioP1;P1;durP2;ratioP2;P2;SDS_P1;SDS_P2;PMS_P1;PMS_P2;Temp;Humidity;BMP_temperature;BMP_pressure;BME280_temperature;BME280_humidity;BME280_pressure;Samples;Min_cycle;Max_cycle;Signal;HPM_P1;HPM_P2
2022/01/02 00:00:17;;;;;;;6.63;3.58;;;11.50;99.90;;;;;;5018189;28;20037;-75
2022/01/02 00:02:48;;;;;;;2.22;1.73;;;11.50;99.90;;;;;;5016175;28;20076;-75
2022/01/02 00:05:16;;;;;;;2.97;2.60;;;11.50;99.90;;;;;;5009709;28;20049;-75
2022/01/02 00:08:03;;;;;;;2.50;2.30;;;11.50;99.90;;;;;;5028726;28;20048;-75
2022/01/02 00:10:45;;;;;;;2.45;2.22;;;11.50;99.90;;;;;;5012666;28;20159;-75
2022/01/02 00:13:16;;;;;;;1.90;1.80;;;11.50;99.90;;;;;;5029374;28;20042;-75
2022/01/02 00:15:42;;;;;;;2.03;0.98;;;11.50;99.90;;;;;;5018550;28;20041;-75
2022/01/02 00:18:12;;;;;;;3.85;2.22;;;11.50;99.90;;;;;;5029189;28;20140;-75
2022/01/02 00:20:46;;;;;;;4.25;2.35;;;11.50;99.90;;;;;;5028785;28;20045;-75
2022/01/02 00:23:18;;;;;;;7.40;3.25;;;11.50;99.90;;;;;;5028785;28;20103;-75
2022/01/02 00:25:45;;;;;;;10.57;3.58;;;11.50;99.90;;;;;;5019006;28;20124;-75
2022/01/02 00:28:11;;;;;;;5.32;2.92;;;11.60;99.90;;;;;;5029393;28;20049;-75
2022/01/02 00:30:37;;;;;;;1.63;1.52;;;11.60;99.90;;;;;;5027345;28;20124;-74
2022/01/02 00:33:04;;;;;;;5.78;2.10;;;11.60;99.90;;;;;;5029006;28;20490;-75
2022/01/02 00:35:30;;;;;;;1.33;1.08;;;11.60;99.90;;;;;;5045379;28;20107;-75
2022/01/02 00:37:56;;;;;;;3.13;1.88;;;11.60;99.90;;;;;;5026088;28;20049;-75
2022/01/02 00:40:23;;;;;;;11.70;3.15;;;11.60;99.90;;;;;;5029294;28;20437;-75
2022/01/02 00:42:59;;;;;;;2.90;1.80;;;11.60;99.90;;;;;;5029020;28;20044;-75
2022/01/02 00:45:27;;;;;;;0.88;0.77;;;11.60;99.90;;;;;;5028447;28;20080;-75
2022/01/02 00:47:59;;;;;;;1.45;1.35;;;11.60;99.90;;;;;;5022193;28;20141;-75
2022/01/02 00:50:37;;;;;;;0.50;0.50;;;11.60;99.90;;;;;;5028623;28;20041;-75
2022/01/02 00:53:05;;;;;;;2.17;0.95;;;11.60;99.90;;;;;;5029327;28;20118;-75
2022/01/02 00:55:34;;;;;;;1.67;1.58;;;11.50;99.90;;;;;;5028428;28;20179;-75
2022/01/02 00:58:07;;;;;;;4.97;1.95;;;11.50;99.90;;;;;;5020674;28;20421;-75
2022/01/02 01:00:33;;;;;;;3.50;2.20;;;11.50;99.90;;;;;;5028713;28;20092;-75
2022/01/02 01:03:09;;;;;;;14.23;2.35;;;11.50;99.90;;;;;;5029014;28;20045;-75
2022/01/02 01:05:37;;;;;;;3.88;1.50;;;11.50;99.90;;;;;;5024640;28;20121;-75
2022/01/02 01:08:05;;;;;;;1.80;1.38;;;11.50;99.90;;;;;;5025678;28;20102;-75
2022/01/02 01:10:37;;;;;;;3.13;1.45;;;11.50;99.90;;;;;;5028746;28;20180;-75
2022/01/02 01:13:05;;;;;;;2.38;2.17;;;11.50;99.90;;;;;;5028808;28;20053;-75
2022/01/02 01:15:32;;;;;;;2.22;1.63;;;11.40;99.90;;;;;;5025005;28;20102;-75
2022/01/02 01:18:00;;;;;;;3.25;2.22;;;11.50;99.90;;;;;;5028722;28;20617;-75
2022/01/02 01:20:29;;;;;;;4.72;3.70;;;11.50;99.90;;;;;;5028564;28;20050;-75
2022/01/02 01:22:55;;;;;;;9.13;2.58;;;11.50;99.90;;;;;;5027384;28;20049;-75
2022/01/02 01:25:23;;;;;;;1.52;1.35;;;11.50;99.90;;;;;;5028227;28;20037;-75
2022/01/02 01:27:51;;;;;;;1.02;0.95;;;11.50;99.90;;;;;;5028343;28;20099;-75
2022/01/02 01:30:22;;;;;;;1.48;1.38;;;11.50;99.90;;;;;;5019585;28;20045;-75
2022/01/02 01:32:48;;;;;;;11.43;3.65;;;11.50;99.90;;;;;;5032096;28;20397;-75
2022/01/02 01:35:15;;;;;;;2.97;1.90;;;11.50;99.90;;;;;;5032396;28;20049;-75
2022/01/02 01:37:41;;;;;;;3.90;3.13;;;11.50;99.90;;;;;;5028053;28;20038;-75
2022/01/02 01:40:09;;;;;;;5.10;1.77;;;11.60;99.90;;;;;;5023184;28;20037;-75
2022/01/02 01:42:38;;;;;;;8.48;3.72;;;11.60;99.90;;;;;;5032216;28;20082;-75
2022/01/02 01:47:47;;;;;;;3.03;2.35;;;11.60;99.90;;;;;;5023799;28;20111;-75
2022/01/02 01:50:14;;;;;;;11.82;6.65;;;11.50;99.90;;;;;;5032018;28;20041;-75
2022/01/02 01:52:40;;;;;;;9.05;3.58;;;11.50;99.90;;;;;;5032199;28;20085;-75
2022/01/02 01:55:07;;;;;;;3.72;2.83;;;11.50;99.90;;;;;;5029750;28;20056;-75
2022/01/02 01:57:33;;;;;;;2.00;1.55;;;11.50;99.90;;;;;;5031152;28;20402;-75
2022/01/02 01:59:59;;;;;;;4.18;2.08;;;11.50;99.90;;;;;;5015302;28;20049;-75
2022/01/02 02:02:26;;;;;;;8.10;3.22;;;11.50;99.90;;;;;;5032128;28;20041;-75
2022/01/02 02:04:52;;;;;;;2.55;1.50;;;11.50;99.90;;;;;;5019222;28;20073;-75
2022/01/02 02:07:26;;;;;;;3.65;2.20;;;11.40;99.90;;;;;;5031694;28;20071;-75
2022/01/02 02:12:17;;;;;;;6.30;2.90;;;11.40;99.90;;;;;;5031049;28;20041;-75
2022/01/02 02:14:43;;;;;;;7.63;3.30;;;11.40;99.90;;;;;;5029909;28;20041;-75
2022/01/02 02:17:09;;;;;;;8.73;2.15;;;11.30;99.90;;;;;;5030819;28;20413;-75
2022/01/02 02:19:35;;;;;;;5.18;2.60;;;11.40;99.90;;;;;;5031332;28;20128;-75
2022/01/02 02:22:03;;;;;;;3.15;2.33;;;11.30;99.90;;;;;;5031315;28;20045;-75
2022/01/02 02:24:28;;;;;;;3.05;1.98;;;11.30;99.90;;;;;;5043209;28;20042;-74
2022/01/02 02:26:54;;;;;;;4.25;3.38;;;11.30;99.90;;;;;;5028655;28;20129;-75
2022/01/02 02:29:20;;;;;;;7.30;3.25;;;11.30;99.90;;;;;;5029955;28;20056;-75
2022/01/02 02:31:46;;;;;;;3.15;1.90;;;11.20;99.90;;;;;;5023244;28;20533;-75
2022/01/02 02:34:12;;;;;;;3.88;2.53;;;11.20;99.90;;;;;;5032329;28;20047;-74
2022/01/02 02:36:37;;;;;;;7.07;3.28;;;11.20;99.90;;;;;;5046778;28;20033;-74
2022/01/02 02:39:03;;;;;;;2.03;1.85;;;11.20;99.90;;;;;;5029515;28;20081;-74
2022/01/02 02:41:33;;;;;;;6.70;2.30;;;11.20;99.90;;;;;;5031079;28;20099;-75
2022/01/02 02:44:06;;;;;;;2.40;1.77;;;11.20;99.90;;;;;;5030411;28;20064;-74
2022/01/02 02:49:16;;;;;;;0.52;0.52;;;11.20;99.90;;;;;;5034935;28;20048;-75
2022/01/02 02:54:10;;;;;;;6.53;3.70;;;11.20;99.90;;;;;;5029987;28;20045;-75
2022/01/02 02:59:21;;;;;;;6.65;3.60;;;11.20;99.90;;;;;;5021666;28;20042;-75
2022/01/02 03:01:47;;;;;;;8.00;4.45;;;11.20;99.90;;;;;;5027514;28;20048;-74
2022/01/02 03:04:13;;;;;;;7.95;2.25;;;11.10;99.90;;;;;;5026854;28;20117;-74
2022/01/02 03:06:38;;;;;;;1.35;1.30;;;11.10;99.90;;;;;;5030705;28;20072;-74
2022/01/02 03:09:08;;;;;;;3.35;1.75;;;11.10;99.90;;;;;;5030698;28;20045;-74
2022/01/02 03:11:35;;;;;;;2.55;2.08;;;11.10;99.90;;;;;;5029213;28;20499;-74
2022/01/02 03:14:01;;;;;;;2.75;1.92;;;11.10;99.90;;;;;;5030629;28;20045;-74
2022/01/02 03:16:27;;;;;;;5.55;3.75;;;11.10;99.90;;;;;;5029857;28;20053;-74
2022/01/02 03:18:54;;;;;;;6.63;3.60;;;11.10;99.90;;;;;;5030154;28;20068;-74
2022/01/02 03:21:21;;;;;;;2.80;2.03;;;11.00;99.90;;;;;;5019542;28;20034;-74
2022/01/02 03:23:47;;;;;;;0.73;0.73;;;11.10;99.90;;;;;;5030307;28;20045;-74
2022/01/02 03:26:12;;;;;;;3.55;2.40;;;11.00;99.90;;;;;;5029604;28;20037;-74
2022/01/02 03:28:38;;;;;;;2.80;2.30;;;11.10;99.90;;;;;;5027221;28;20048;-74
2022/01/02 03:31:04;;;;;;;1.05;1.05;;;11.10;99.90;;;;;;5019049;28;20049;-74
2022/01/02 03:33:30;;;;;;;2.58;1.95;;;11.10;99.90;;;;;;5030075;28;20518;-74
2022/01/02 03:35:56;;;;;;;5.50;3.63;;;11.00;99.90;;;;;;5029290;28;20044;-74
2022/01/02 03:38:22;;;;;;;6.55;2.78;;;11.10;99.90;;;;;;5023892;28;20091;-74
2022/01/02 03:40:48;;;;;;;2.63;2.13;;;11.10;99.90;;;;;;5060945;28;20051;-74
2022/01/02 03:43:13;;;;;;;3.33;1.73;;;11.10;99.90;;;;;;5029852;28;20048;-74
2022/01/02 03:45:39;;;;;;;1.83;1.35;;;11.10;99.90;;;;;;5029683;28;20033;-74
2022/01/02 03:48:05;;;;;;;1.92;1.80;;;11.10;99.90;;;;;;5019062;28;20046;-74
2022/01/02 03:50:31;;;;;;;9.30;3.05;;;11.10;99.90;;;;;;5027179;28;20069;-74
2022/01/02 03:52:56;;;;;;;1.27;1.20;;;11.10;99.90;;;;;;5029932;28;20080;-74
2022/01/02 03:55:22;;;;;;;1.55;1.38;;;11.10;99.90;;;;;;5024585;28;20056;-75
2022/01/02 03:57:49;;;;;;;6.82;1.52;;;11.10;99.90;;;;;;5029450;28;20041;-74
2022/01/02 04:00:15;;;;;;;8.02;3.88;;;11.10;99.90;;;;;;5029976;28;20469;-74
2022/01/02 04:02:42;;;;;;;2.38;2.15;;;11.10;99.90;;;;;;5029453;28;20044;-74
2022/01/02 04:05:09;;;;;;;6.80;4.30;;;11.10;99.90;;;;;;5023208;28;20128;-74
2022/01/02 04:07:35;;;;;;;4.13;1.98;;;11.20;99.90;;;;;;5029298;28;20434;-74
2022/01/02 04:10:07;;;;;;;4.38;2.58;;;11.10;99.90;;;;;;5028936;28;20045;-74
2022/01/02 04:12:34;;;;;;;0.77;0.77;;;11.20;99.90;;;;;;5036144;28;20103;-74
2022/01/02 04:15:00;;;;;;;5.72;1.80;;;11.20;99.90;;;;;;5060548;28;20055;-74
2022/01/02 04:17:26;;;;;;;1.77;1.52;;;11.20;99.90;;;;;;5029290;28;20246;-74
2022/01/02 04:19:52;;;;;;;3.85;3.08;;;11.30;99.90;;;;;;5029029;28;20120;-74
2022/01/02 04:22:18;;;;;;;1.48;1.38;;;11.30;99.90;;;;;;5023953;28;20387;-74
2022/01/02 04:24:44;;;;;;;10.93;6.22;;;11.30;99.90;;;;;;5029256;28;20041;-74
2022/01/02 04:27:10;;;;;;;2.95;1.13;;;11.30;99.90;;;;;;5020226;28;20049;-74
2022/01/02 04:29:36;;;;;;;6.53;2.72;;;11.40;99.90;;;;;;5017722;28;20120;-74
2022/01/02 04:32:02;;;;;;;6.78;3.20;;;11.30;99.90;;;;;;5020669;28;20045;-74
2022/01/02 04:34:28;;;;;;;4.20;2.42;;;11.30;99.90;;;;;;5029019;28;20037;-74
2022/01/02 04:36:54;;;;;;;1.65;1.50;;;11.30;99.90;;;;;;5028861;28;20120;-74
2022/01/02 04:39:20;;;;;;;4.47;2.05;;;11.40;99.90;;;;;;5035071;28;20041;-74
2022/01/02 04:41:45;;;;;;;1.40;1.30;;;11.40;99.90;;;;;;5029324;28;20045;-74
2022/01/02 04:44:11;;;;;;;3.17;2.03;;;11.40;99.90;;;;;;5028856;28;20553;-74
2022/01/02 04:46:37;;;;;;;6.60;3.88;;;11.40;99.90;;;;;;5025770;28;20033;-74
2022/01/02 04:49:02;;;;;;;5.60;2.65;;;11.40;99.90;;;;;;5012403;28;20180;-74
2022/01/02 04:51:28;;;;;;;1.65;1.35;;;11.40;99.90;;;;;;5028885;28;20069;-74
2022/01/02 04:53:54;;;;;;;1.33;1.23;;;11.40;99.90;;;;;;5026401;28;20096;-74
2022/01/02 04:56:20;;;;;;;12.30;4.10;;;11.40;99.90;;;;;;5028907;28;20052;-74
2022/01/02 04:58:46;;;;;;;3.72;1.48;;;11.40;99.90;;;;;;5028783;28;20037;-74
2022/01/02 05:01:12;;;;;;;1.42;1.38;;;11.40;99.90;;;;;;5028796;28;20464;-74
2022/01/02 05:03:38;;;;;;;1.48;1.20;;;11.40;99.90;;;;;;5023677;28;20041;-74
2022/01/02 05:06:05;;;;;;;5.78;2.50;;;11.40;99.90;;;;;;5029272;28;20038;-74
2022/01/02 05:08:31;;;;;;;1.35;0.77;;;11.40;99.90;;;;;;5032685;28;20048;-74
2022/01/02 05:10:56;;;;;;;0.85;0.85;;;11.40;99.90;;;;;;5030389;28;20045;-74
2022/01/02 05:13:22;;;;;;;2.78;1.63;;;11.40;99.90;;;;;;5047718;28;20053;-74
2022/01/02 05:15:48;;;;;;;3.60;2.33;;;11.40;99.90;;;;;;5032320;28;20106;-74
2022/01/02 05:18:14;;;;;;;1.52;1.38;;;11.40;99.90;;;;;;5032243;28;20597;-74
2022/01/02 05:20:39;;;;;;;15.40;2.95;;;11.40;99.90;;;;;;5025178;28;20133;-74
2022/01/02 05:23:05;;;;;;;10.05;1.45;;;11.40;99.90;;;;;;5030688;28;20041;-74
2022/01/02 05:25:31;;;;;;;3.13;2.03;;;11.40;99.90;;;;;;5032712;28;20250;-74
2022/01/02 05:27:57;;;;;;;3.13;1.77;;;11.40;99.90;;;;;;5028873;28;20524;-74
2022/01/02 05:30:22;;;;;;;2.45;1.58;;;11.50;99.90;;;;;;5032184;28;20045;-74
2022/01/02 05:32:48;;;;;;;7.00;2.38;;;11.50;99.90;;;;;;5032642;28;20057;-74
2022/01/02 05:35:14;;;;;;;4.25;1.77;;;11.50;99.90;;;;;;5032343;28;20047;-74
2022/01/02 05:37:39;;;;;;;1.15;1.02;;;11.50;99.90;;;;;;5032621;28;20046;-74
2022/01/02 05:40:06;;;;;;;11.75;2.40;;;11.50;99.90;;;;;;5024052;28;20037;-74
2022/01/02 05:42:31;;;;;;;2.97;1.80;;;11.50;99.90;;;;;;5032405;28;20045;-74
2022/01/02 05:44:57;;;;;;;2.80;2.58;;;11.50;99.90;;;;;;5016343;28;20437;-74
2022/01/02 05:47:23;;;;;;;7.38;2.08;;;11.60;99.90;;;;;;5031098;28;20091;-74
2022/01/02 05:49:48;;;;;;;6.32;3.08;;;11.60;99.90;;;;;;5032836;28;20045;-74
2022/01/02 05:52:14;;;;;;;9.82;3.15;;;11.60;99.90;;;;;;5032847;28;20472;-74
2022/01/02 05:54:40;;;;;;;6.25;1.80;;;11.60;99.90;;;;;;5031884;28;20037;-74
2022/01/02 05:57:05;;;;;;;3.97;2.00;;;11.60;99.90;;;;;;5027879;28;20100;-74
2022/01/02 05:59:33;;;;;;;1.65;1.20;;;11.60;99.90;;;;;;5055547;28;20037;-74
2022/01/02 06:01:59;;;;;;;2.83;1.35;;;11.70;99.90;;;;;;5032298;28;20124;-74
2022/01/02 06:04:27;;;;;;;17.00;4.18;;;11.60;99.90;;;;;;5031821;28;20481;-75
2022/01/02 06:06:53;;;;;;;3.90;2.63;;;11.70;99.90;;;;;;5028489;28;20068;-74
2022/01/02 06:09:18;;;;;;;1.90;1.45;;;11.70;99.90;;;;;;5031648;28;20046;-74
2022/01/02 06:11:44;;;;;;;3.30;1.45;;;11.70;99.90;;;;;;5031629;28;20045;-74
2022/01/02 06:14:10;;;;;;;3.03;1.75;;;11.70;99.90;;;;;;5028633;28;20043;-74
2022/01/02 06:16:35;;;;;;;13.60;3.47;;;11.70;99.90;;;;;;5029936;28;20424;-74
2022/01/02 06:19:01;;;;;;;9.23;2.58;;;11.70;99.90;;;;;;5030284;28;20077;-74
2022/01/02 06:21:27;;;;;;;18.27;3.58;;;11.70;99.90;;;;;;5031863;28;20095;-74
2022/01/02 06:23:53;;;;;;;6.68;2.60;;;11.70;99.90;;;;;;5025127;28;20038;-74
2022/01/02 06:26:18;;;;;;;8.00;3.80;;;11.70;99.90;;;;;;5031038;28;20452;-74
2022/01/02 06:28:44;;;;;;;8.65;3.08;;;11.70;99.90;;;;;;5030876;28;20107;-74
2022/01/02 06:31:11;;;;;;;6.88;2.63;;;11.80;99.90;;;;;;5036842;28;20037;-74
2022/01/02 06:33:37;;;;;;;1.52;1.35;;;11.80;99.90;;;;;;5031044;28;20052;-74
2022/01/02 06:36:03;;;;;;;3.10;1.13;;;11.70;99.90;;;;;;5031183;28;20754;-73
2022/01/02 06:38:29;;;;;;;1.48;1.20;;;11.80;99.90;;;;;;5029968;28;20077;-74
2022/01/02 06:40:54;;;;;;;6.47;2.75;;;11.70;99.90;;;;;;5031130;28;20180;-74
2022/01/02 06:43:20;;;;;;;6.72;2.10;;;11.80;99.90;;;;;;5031188;28;20037;-74
2022/01/02 06:45:47;;;;;;;9.65;2.30;;;11.80;99.90;;;;;;5030240;28;20037;-74
2022/01/02 06:48:13;;;;;;;11.20;1.83;;;11.70;99.90;;;;;;5042002;28;20037;-74
2022/01/02 06:50:39;;;;;;;5.88;2.88;;;11.70;99.90;;;;;;5031119;28;20707;-73
2022/01/02 06:53:05;;;;;;;5.30;1.33;;;11.70;99.90;;;;;;5030778;28;20051;-74
2022/01/02 06:55:31;;;;;;;14.30;2.58;;;11.80;99.90;;;;;;5020587;28;20120;-74
2022/01/02 06:57:57;;;;;;;6.18;2.38;;;11.80;99.90;;;;;;5031007;28;20124;-74
2022/01/02 07:00:23;;;;;;;1.45;1.30;;;11.80;99.90;;;;;;5030675;28;20037;-74
2022/01/02 07:02:52;;;;;;;3.92;2.08;;;11.80;99.90;;;;;;5029207;28;20103;-74
2022/01/02 07:05:18;;;;;;;3.65;1.83;;;11.80;99.90;;;;;;5061867;28;20401;-74
2022/01/02 07:07:45;;;;;;;5.88;2.60;;;11.90;99.90;;;;;;5030437;28;20049;-74
2022/01/02 07:10:12;;;;;;;4.53;2.05;;;11.90;99.90;;;;;;5014228;28;20045;-74
2022/01/02 07:12:38;;;;;;;5.53;2.92;;;11.90;99.90;;;;;;5026624;28;20410;-74
2022/01/02 07:15:05;;;;;;;8.30;2.47;;;11.90;99.90;;;;;;5030204;28;20045;-74
2022/01/02 07:17:31;;;;;;;2.92;1.83;;;11.90;99.90;;;;;;5030128;28;20615;-74
2022/01/02 07:19:57;;;;;;;7.63;2.67;;;12.00;99.90;;;;;;5029893;28;20038;-74
2022/01/02 07:22:23;;;;;;;2.15;1.58;;;12.00;99.90;;;;;;5032569;28;20038;-74
2022/01/02 07:24:51;;;;;;;4.32;2.10;;;12.00;99.90;;;;;;5014858;28;20037;-74
2022/01/02 07:27:18;;;;;;;5.57;1.73;;;12.00;99.90;;;;;;5029796;28;20468;-73
2022/01/02 07:29:44;;;;;;;6.68;1.95;;;12.00;99.90;;;;;;5040920;28;20041;-74
2022/01/02 07:32:10;;;;;;;1.17;1.13;;;12.00;99.90;;;;;;5039126;28;20067;-73
2022/01/02 07:34:36;;;;;;;0.80;0.80;;;12.00;99.90;;;;;;5029810;28;20531;-73
2022/01/02 07:37:02;;;;;;;0.98;0.98;;;12.00;99.90;;;;;;5028830;28;20152;-73
2022/01/02 07:39:27;;;;;;;5.97;1.70;;;12.00;99.90;;;;;;5052900;28;20045;-73
2022/01/02 07:41:53;;;;;;;9.18;2.42;;;12.00;99.90;;;;;;5029790;28;20043;-74
2022/01/02 07:44:19;;;;;;;5.20;1.50;;;12.00;99.90;;;;;;5029724;28;20037;-74
2022/01/02 07:46:45;;;;;;;2.53;1.58;;;12.00;99.90;;;;;;5024462;28;20477;-73
2022/01/02 07:49:10;;;;;;;3.03;1.55;;;12.00;99.90;;;;;;5029743;28;20057;-74
2022/01/02 07:51:36;;;;;;;1.42;1.33;;;12.00;99.90;;;;;;5029694;28;20079;-74
2022/01/02 07:54:02;;;;;;;3.25;2.03;;;12.00;99.90;;;;;;5029804;28;20080;-73
2022/01/02 07:56:28;;;;;;;2.72;1.42;;;12.00;99.90;;;;;;5025865;28;20045;-74
2022/01/02 07:58:55;;;;;;;2.92;1.77;;;12.00;99.90;;;;;;5029283;28;20099;-74
2022/01/02 08:01:21;;;;;;;1.40;1.30;;;12.00;99.90;;;;;;5029042;28;20057;-73
2022/01/02 08:03:47;;;;;;;5.32;2.13;;;12.00;99.90;;;;;;5025670;28;20042;-73
2022/01/02 08:06:13;;;;;;;9.50;2.33;;;12.00;99.90;;;;;;5022435;28;20401;-73
2022/01/02 08:08:39;;;;;;;3.25;1.52;;;12.00;99.90;;;;;;5046019;28;20052;-73
2022/01/02 08:11:05;;;;;;;1.80;0.70;;;11.90;99.90;;;;;;5029673;28;20049;-73
2022/01/02 08:13:30;;;;;;;6.97;2.55;;;11.90;99.90;;;;;;5024217;28;20052;-73
2022/01/02 08:15:56;;;;;;;5.28;2.83;;;11.90;99.90;;;;;;5028960;28;20124;-73
2022/01/02 08:18:22;;;;;;;2.45;1.60;;;11.90;99.90;;;;;;5012451;28;20045;-73
2022/01/02 08:20:47;;;;;;;12.13;3.58;;;11.80;99.90;;;;;;5029179;28;20075;-73
2022/01/02 08:23:14;;;;;;;4.60;2.17;;;11.80;99.90;;;;;;5016671;28;20047;-73
2022/01/02 08:25:40;;;;;;;5.32;2.97;;;11.80;99.90;;;;;;5028745;28;20045;-73
2022/01/02 08:28:06;;;;;;;17.13;2.38;;;11.80;99.90;;;;;;5029346;28;20037;-73
2022/01/02 08:30:31;;;;;;;13.90;2.85;;;11.80;99.90;;;;;;5025295;28;20523;-73
2022/01/02 08:32:57;;;;;;;3.58;1.55;;;11.70;99.90;;;;;;5029060;28;20087;-73
2022/01/02 08:35:23;;;;;;;7.03;1.67;;;11.70;99.90;;;;;;5028623;28;20076;-74
2022/01/02 08:37:49;;;;;;;5.47;2.72;;;11.70;99.90;;;;;;5044928;28;20080;-74
2022/01/02 08:40:14;;;;;;;8.02;4.38;;;11.80;99.90;;;;;;5009698;28;20041;-73
2022/01/02 08:42:40;;;;;;;8.52;1.48;;;11.70;99.90;;;;;;5028547;28;20498;-74
2022/01/02 08:45:07;;;;;;;4.60;2.88;;;11.70;99.90;;;;;;5029130;28;20406;-74
2022/01/02 08:47:32;;;;;;;7.35;4.07;;;11.70;99.90;;;;;;5028820;28;20042;-74
2022/01/02 08:49:59;;;;;;;1.83;1.35;;;11.60;99.90;;;;;;5018223;28;20049;-74
2022/01/02 08:52:25;;;;;;;6.85;2.95;;;11.60;99.90;;;;;;5029031;28;20075;-74
2022/01/02 08:54:51;;;;;;;0.30;0.30;;;11.60;99.90;;;;;;5046339;28;20037;-74
2022/01/02 08:57:17;;;;;;;1.35;0.82;;;11.60;99.90;;;;;;5028781;28;20565;-74
2022/01/02 08:59:43;;;;;;;3.35;1.98;;;11.50;99.90;;;;;;5019593;28;20045;-74
2022/01/02 09:02:09;;;;;;;3.20;2.05;;;11.50;99.90;;;;;;5061808;28;20486;-74
2022/01/02 09:04:35;;;;;;;0.90;0.55;;;11.50;99.90;;;;;;5029202;28;20420;-74
2022/01/02 09:07:01;;;;;;;2.28;1.70;;;11.50;99.90;;;;;;5023156;28;20121;-74
2022/01/02 09:09:28;;;;;;;1.63;1.05;;;11.40;99.90;;;;;;5055100;28;20492;-74
2022/01/02 09:11:54;;;;;;;0.43;0.43;;;11.40;99.90;;;;;;5028177;28;20053;-74
2022/01/02 09:14:20;;;;;;;3.30;2.97;;;11.40;99.90;;;;;;5029213;28;20074;-74
2022/01/02 09:16:46;;;;;;;7.78;4.38;;;11.40;99.90;;;;;;5018710;28;20099;-74
2022/01/02 09:19:12;;;;;;;1.60;1.50;;;11.40;99.90;;;;;;5028527;28;20046;-74
2022/01/02 09:21:38;;;;;;;0.70;0.70;;;11.40;99.90;;;;;;5028914;28;20041;-74
2022/01/02 09:24:05;;;;;;;4.03;1.63;;;11.40;99.90;;;;;;5028687;28;20497;-74
2022/01/02 09:26:32;;;;;;;2.65;1.40;;;11.40;99.90;;;;;;5026293;28;20112;-74
2022/01/02 09:28:57;;;;;;;3.30;2.08;;;11.40;99.90;;;;;;5028644;28;20072;-74
2022/01/02 09:31:24;;;;;;;3.20;1.55;;;11.40;99.90;;;;;;5017155;28;20045;-74
2022/01/02 09:33:49;;;;;;;4.05;1.45;;;11.40;99.90;;;;;;5028680;28;20048;-74
2022/01/02 09:36:16;;;;;;;5.70;1.83;;;11.40;99.90;;;;;;5028242;28;20457;-74
2022/01/02 09:38:42;;;;;;;3.17;2.30;;;11.40;99.90;;;;;;5021127;28;20093;-74
2022/01/02 09:41:08;;;;;;;1.92;1.60;;;11.40;99.90;;;;;;5022795;28;20489;-74
2022/01/02 09:43:34;;;;;;;1.77;1.23;;;11.40;99.90;;;;;;5028827;28;20344;-74
2022/01/02 09:46:02;;;;;;;6.93;3.75;;;11.40;99.90;;;;;;5027722;28;20052;-74
2022/01/02 09:48:29;;;;;;;1.63;1.52;;;11.40;99.90;;;;;;5024498;28;20056;-74
2022/01/02 09:50:56;;;;;;;21.98;4.05;;;11.40;99.90;;;;;;5028864;28;20132;-74
2022/01/02 09:53:23;;;;;;;8.23;4.45;;;11.40;99.90;;;;;;5029589;28;20103;-74
2022/01/02 09:55:49;;;;;;;3.50;1.75;;;11.40;99.90;;;;;;5026738;28;20441;-74
2022/01/02 09:58:15;;;;;;;1.38;1.27;;;11.30;99.90;;;;;;5031977;28;20045;-74
2022/01/02 10:00:47;;;;;;;1.85;1.35;;;11.30;99.90;;;;;;5032201;28;20048;-74
2022/01/02 10:03:14;;;;;;;4.10;2.10;;;11.30;99.90;;;;;;5029337;28;20049;-74
2022/01/02 10:06:02;;;;;;;6.28;2.88;;;11.30;99.90;;;;;;5020305;28;20151;-74
2022/01/02 10:08:34;;;;;;;4.18;2.15;;;11.40;99.90;;;;;;5031856;28;20742;-74
2022/01/02 10:11:25;;;;;;;3.28;1.75;;;11.40;99.90;;;;;;5031754;28;20049;-74
2022/01/02 10:13:56;;;;;;;2.58;1.88;;;11.40;99.90;;;;;;5021711;28;20128;-74
2022/01/02 10:16:38;;;;;;;7.35;3.67;;;11.40;99.90;;;;;;5031264;28;21182;-74
2022/01/02 10:19:18;;;;;;;1.67;0.85;;;11.40;99.90;;;;;;5031009;28;20516;-74
2022/01/02 10:21:54;;;;;;;5.07;3.03;;;11.40;99.90;;;;;;5018672;28;20050;-75
2022/01/02 10:24:36;;;;;;;9.55;3.13;;;11.40;99.90;;;;;;5018319;28;20056;-74
2022/01/02 10:27:17;;;;;;;12.02;5.90;;;11.40;99.90;;;;;;5031133;28;20084;-74
2022/01/02 10:29:43;;;;;;;2.08;1.98;;;11.40;99.90;;;;;;5026932;28;20132;-74
2022/01/02 10:32:41;;;;;;;6.88;3.70;;;11.50;99.90;;;;;;5040289;28;20128;-74
2022/01/02 10:35:16;;;;;;;5.60;2.55;;;11.50;99.90;;;;;;5021669;28;20409;-74
2022/01/02 10:37:47;;;;;;;5.32;3.92;;;11.60;99.90;;;;;;5047416;28;20048;-75
2022/01/02 10:40:33;;;;;;;6.68;3.30;;;11.60;99.90;;;;;;5040604;28;20041;-75
2022/01/02 10:43:05;;;;;;;5.57;2.78;;;11.60;99.90;;;;;;5016590;28;20128;-74
2022/01/02 10:45:33;;;;;;;19.13;4.18;;;11.60;99.90;;;;;;5042948;28;20037;-74
2022/01/02 10:48:00;;;;;;;4.63;2.50;;;11.60;99.90;;;;;;5015949;28;20103;-75
2022/01/02 10:50:26;;;;;;;7.85;3.28;;;11.60;99.90;;;;;;5027718;28;20064;-75
2022/01/02 10:52:52;;;;;;;11.05;3.90;;;11.70;99.90;;;;;;5030360;28;20053;-75
2022/01/02 10:55:27;;;;;;;4.88;1.08;;;11.70;99.90;;;;;;5047098;28;20128;-74
2022/01/02 10:57:54;;;;;;;17.08;4.13;;;11.70;99.90;;;;;;5024499;28;20088;-75
2022/01/02 11:00:23;;;;;;;10.18;3.85;;;11.70;99.90;;;;;;5028905;28;20497;-74
2022/01/02 11:02:49;;;;;;;9.25;3.42;;;11.70;99.90;;;;;;5040429;28;20038;-75
2022/01/02 11:05:17;;;;;;;7.03;2.58;;;11.80;99.90;;;;;;5003862;28;20048;-74
2022/01/02 11:07:50;;;;;;;2.17;1.75;;;11.80;99.90;;;;;;5034085;28;20379;-74
2022/01/02 11:10:18;;;;;;;7.57;3.13;;;11.80;99.90;;;;;;5030357;28;20443;-75
2022/01/02 11:12:46;;;;;;;8.15;3.67;;;11.80;99.90;;;;;;5030360;28;20049;-75
2022/01/02 11:15:15;;;;;;;9.85;3.65;;;11.90;99.90;;;;;;5028628;28;20049;-75
2022/01/02 11:17:42;;;;;;;18.42;3.90;;;11.90;99.90;;;;;;5040457;28;20067;-75
2022/01/02 11:20:14;;;;;;;6.65;2.40;;;11.90;99.90;;;;;;5030295;28;20053;-75
2022/01/02 11:22:54;;;;;;;9.02;2.22;;;11.90;99.90;;;;;;5029961;28;20049;-75
2022/01/02 11:25:38;;;;;;;7.57;3.45;;;11.90;99.90;;;;;;5053614;28;20068;-75
2022/01/02 11:28:09;;;;;;;7.28;1.63;;;12.00;99.90;;;;;;5030005;28;20060;-75
2022/01/02 11:30:37;;;;;;;5.55;2.78;;;11.90;99.90;;;;;;5018902;28;20046;-75
2022/01/02 11:33:06;;;;;;;7.97;3.22;;;11.90;99.90;;;;;;5030322;28;20854;-75
2022/01/02 11:35:33;;;;;;;2.58;1.55;;;11.90;99.90;;;;;;5029651;28;20045;-75
2022/01/02 11:38:03;;;;;;;7.80;3.33;;;11.90;99.90;;;;;;5027175;28;20050;-75
2022/01/02 11:40:45;;;;;;;3.42;2.13;;;11.90;99.90;;;;;;5025047;28;20042;-75
2022/01/02 11:43:49;;;;;;;4.90;1.92;;;11.80;99.90;;;;;;5030311;28;20121;-75
2022/01/02 11:46:22;;;;;;;6.90;3.00;;;11.80;99.90;;;;;;5017008;28;20054;-75
2022/01/02 11:49:41;;;;;;;7.50;3.38;;;11.80;99.90;;;;;;5060480;28;20045;-75
2022/01/02 11:52:23;;;;;;;5.78;2.97;;;11.90;99.90;;;;;;5038247;28;20444;-75
2022/01/02 11:54:51;;;;;;;5.97;1.97;;;11.80;99.90;;;;;;5029847;28;20041;-75
2022/01/02 11:57:18;;;;;;;4.38;2.47;;;11.80;99.90;;;;;;5022633;28;20856;-75
2022/01/02 11:59:44;;;;;;;11.10;2.95;;;11.80;99.90;;;;;;5029608;28;20049;-75
2022/01/02 12:02:13;;;;;;;7.15;1.88;;;11.80;99.90;;;;;;5029575;28;20076;-75
2022/01/02 12:07:35;;;;;;;7.90;2.03;;;11.90;99.90;;;;;;5029105;28;20571;-75
2022/01/02 12:10:16;;;;;;;22.63;2.80;;;11.80;99.90;;;;;;5029679;28;20486;-75
2022/01/02 12:13:02;;;;;;;7.85;2.72;;;11.80;99.90;;;;;;5029324;28;20069;-75
2022/01/02 12:15:33;;;;;;;5.05;1.88;;;11.80;99.90;;;;;;5017904;28;20087;-75
2022/01/02 12:18:16;;;;;;;3.03;2.75;;;11.70;99.90;;;;;;5029245;28;20049;-75
2022/01/02 12:20:56;;;;;;;5.85;2.75;;;11.80;99.90;;;;;;5029177;28;20196;-75
2022/01/02 12:23:34;;;;;;;8.55;2.47;;;11.70;99.90;;;;;;5027574;28;20409;-75
2022/01/02 12:26:01;;;;;;;13.52;2.03;;;11.80;99.90;;;;;;5028827;28;20528;-75
2022/01/02 12:28:29;;;;;;;17.60;3.70;;;11.80;99.90;;;;;;5029368;28;20049;-75
2022/01/02 12:30:56;;;;;;;12.38;3.60;;;11.80;99.90;;;;;;5018020;28;20048;-75
2022/01/02 12:33:28;;;;;;;16.42;3.75;;;11.70;99.90;;;;;;5029360;28;20045;-75
2022/01/02 12:35:54;;;;;;;18.05;3.25;;;11.80;99.90;;;;;;5028434;28;20041;-75
2022/01/02 12:38:20;;;;;;;14.68;2.38;;;11.80;99.90;;;;;;5024360;28;20107;-75
2022/01/02 12:40:47;;;;;;;5.43;2.15;;;11.80;99.90;;;;;;5043189;28;20523;-75
2022/01/02 12:43:13;;;;;;;14.70;3.08;;;11.90;99.90;;;;;;5029073;28;20048;-75
2022/01/02 12:45:39;;;;;;;6.50;2.33;;;11.80;99.90;;;;;;5028735;28;20456;-75
2022/01/02 12:48:05;;;;;;;17.92;4.10;;;11.90;99.90;;;;;;5021097;28;20129;-75
2022/01/02 12:50:33;;;;;;;14.10;3.45;;;11.90;99.90;;;;;;5028685;28;20068;-75
2022/01/02 12:52:59;;;;;;;14.38;2.45;;;11.90;99.90;;;;;;5028996;28;20111;-75
2022/01/02 12:55:26;;;;;;;5.80;1.92;;;11.90;99.90;;;;;;5026610;28;20047;-75
2022/01/02 12:58:07;;;;;;;13.02;3.58;;;11.80;99.90;;;;;;5029097;28;20033;-75
2022/01/02 13:00:33;;;;;;;7.78;1.70;;;11.80;99.90;;;;;;5028382;28;20041;-75
2022/01/02 13:02:59;;;;;;;5.95;2.28;;;11.80;99.90;;;;;;5023176;28;20046;-75
2022/01/02 13:05:25;;;;;;;15.85;3.28;;;11.80;99.90;;;;;;5028046;28;20033;-75